Pagina principale
METAR-TAF:

METAR-TAF

Aeroporti :

Osijek, Croazia

Aeroporto di Osijek-Klisa

latitudine: 45-27N, longitudine: 018-48E, altezza: 88 m

Osservazione

Il bollettino è stato emesso 36 minuti fa, alle 20:00 UTC
Vento 3 kt da sud/sud-est
Temperature 18°C
Umidità 77%
Pressione 1006 hPa
Visibilità 10 km o più
nessuna nube inferiore a 1500 m e nessun cumulonembo

METAR: LDOS 252000Z 16003KT CAVOK 18/14 Q1006

Ora: 22:36 (20:36 UTC)

Previsione

Il bollettino è stato emesso 3 ore e 11 minuti fa, alle 17:25 UTC
Previsione valida dal 25 alle 18 UTC al 26 alle 18 UTC
Vento 5 kt da nord-ovest
Visibilità 10 km o più
Poco nuvoloso ad un'altezza di 3300 ft
Evoluzione graduale
dal 26 alle 10 UTC al 26 alle 12 UTC
Vento 6 kt da est/sud-est

TAF: LDOS 251725Z 2518/2618 32005KT 9999 FEW033 TX27/2614Z TN14/2604Z BECMG 2610/2612 11006KT

Osservazioni e previsioni meteorologiche di più di 4000 aeroporti (messaggi METAR e TAF).

Le stazioni disponibili sono rappresentate dai dischi gialli e rossi sulla carta.

Puntare il mouse per vedere il nome della stazione.

Clicca sopra per visualizzare le osservazioni e previsioni meteorologiche.

Per cambiare la mappa : fare clic sui pulsanti verdi con una croce nera per ingrandire, il pulsante verde con un trattino per diminuire, o sulla freccia verde per le mappe adiacenti.


METAR-TAF: